sim
Sign-in with your pilot id or email,
or register
Callsign
Passwort

Schedule Details

Flight Number: EWG9654
Departure: Dusseldorf International Airport (EDDL) at 06:25
Arrival: Thessaloniki International Airport (LGTS) at 09:05
Route: Eurowings Passenger Schedule. Enter filed route here before submitting Pirep.

Weather Information
Getting current METAR information for EDDL 211820Z 03003KT CAVOK 21/09 Q1026 NOSIG
Getting current METAR information for LGTS 211820Z 10005KT CAVOK 27/13 Q1016 NOSIG

Schedule Frequency

Route Map